sensor_id;sensor_type;location;lat;lon;timestamp;P1;durP1;ratioP1;P2;durP2;ratioP2
22610;SDS011;11472;45.494;12.142;2022-12-18T00:00:02;10.00;;;7.10;;
22610;SDS011;11472;45.494;12.142;2022-12-18T00:01:13;10.00;;;7.10;;
22610;SDS011;11472;45.494;12.142;2022-12-18T00:02:01;10.00;;;7.10;;
22610;SDS011;11472;45.494;12.142;2022-12-18T00:03:01;10.00;;;7.10;;
22610;SDS011;11472;45.494;12.142;2022-12-18T00:04:03;10.00;;;7.10;;
22610;SDS011;11472;45.494;12.142;2022-12-18T00:05:01;10.00;;;7.10;;
22610;SDS011;11472;45.494;12.142;2022-12-18T00:06:01;10.00;;;7.10;;
22610;SDS011;11472;45.494;12.142;2022-12-18T00:07:01;10.00;;;7.10;;
22610;SDS011;11472;45.494;12.142;2022-12-18T00:08:01;10.00;;;7.10;;
22610;SDS011;11472;45.494;12.142;2022-12-18T00:09:02;10.00;;;7.10;;
22610;SDS011;11472;45.494;12.142;2022-12-18T00:10:01;9.20;;;6.80;;
22610;SDS011;11472;45.494;12.142;2022-12-18T00:11:10;9.20;;;6.80;;
22610;SDS011;11472;45.494;12.142;2022-12-18T00:12:10;9.20;;;6.80;;
22610;SDS011;11472;45.494;12.142;2022-12-18T00:13:02;9.20;;;6.80;;
22610;SDS011;11472;45.494;12.142;2022-12-18T00:14:01;9.20;;;6.80;;
22610;SDS011;11472;45.494;12.142;2022-12-18T00:15:01;9.20;;;6.80;;
22610;SDS011;11472;45.494;12.142;2022-12-18T00:16:03;9.20;;;6.80;;
22610;SDS011;11472;45.494;12.142;2022-12-18T00:17:01;9.20;;;6.80;;
22610;SDS011;11472;45.494;12.142;2022-12-18T00:18:01;9.20;;;6.80;;
22610;SDS011;11472;45.494;12.142;2022-12-18T00:19:01;9.20;;;6.80;;
22610;SDS011;11472;45.494;12.142;2022-12-18T00:20:01;9.20;;;6.80;;
22610;SDS011;11472;45.494;12.142;2022-12-18T00:21:02;9.20;;;6.80;;
22610;SDS011;11472;45.494;12.142;2022-12-18T00:22:01;9.20;;;6.80;;
22610;SDS011;11472;45.494;12.142;2022-12-18T00:23:01;9.20;;;6.80;;
22610;SDS011;11472;45.494;12.142;2022-12-18T00:24:01;9.20;;;6.80;;
22610;SDS011;11472;45.494;12.142;2022-12-18T00:25:01;9.50;;;6.60;;
22610;SDS011;11472;45.494;12.142;2022-12-18T00:26:03;9.50;;;6.60;;
22610;SDS011;11472;45.494;12.142;2022-12-18T00:27:01;9.50;;;6.60;;
22610;SDS011;11472;45.494;12.142;2022-12-18T00:28:02;9.50;;;6.60;;
22610;SDS011;11472;45.494;12.142;2022-12-18T00:29:07;9.50;;;6.60;;
22610;SDS011;11472;45.494;12.142;2022-12-18T00:30:01;9.50;;;6.60;;
22610;SDS011;11472;45.494;12.142;2022-12-18T00:31:11;9.50;;;6.60;;
22610;SDS011;11472;45.494;12.142;2022-12-18T00:32:01;9.50;;;6.60;;
22610;SDS011;11472;45.494;12.142;2022-12-18T00:33:01;9.50;;;6.60;;
22610;SDS011;11472;45.494;12.142;2022-12-18T00:34:01;9.50;;;6.60;;
22610;SDS011;11472;45.494;12.142;2022-12-18T00:35:01;9.50;;;6.60;;
22610;SDS011;11472;45.494;12.142;2022-12-18T00:36:03;9.50;;;6.60;;
22610;SDS011;11472;45.494;12.142;2022-12-18T00:37:01;9.50;;;6.60;;
22610;SDS011;11472;45.494;12.142;2022-12-18T00:38:01;9.50;;;6.60;;
22610;SDS011;11472;45.494;12.142;2022-12-18T00:39:03;9.50;;;6.60;;
22610;SDS011;11472;45.494;12.142;2022-12-18T00:40:02;10.10;;;6.30;;
22610;SDS011;11472;45.494;12.142;2022-12-18T00:41:01;10.10;;;6.30;;
22610;SDS011;11472;45.494;12.142;2022-12-18T00:42:11;10.10;;;6.30;;
22610;SDS011;11472;45.494;12.142;2022-12-18T00:43:01;10.10;;;6.30;;
22610;SDS011;11472;45.494;12.142;2022-12-18T00:44:01;10.10;;;6.30;;
22610;SDS011;11472;45.494;12.142;2022-12-18T00:45:01;10.10;;;6.30;;
22610;SDS011;11472;45.494;12.142;2022-12-18T00:46:01;10.10;;;6.30;;
22610;SDS011;11472;45.494;12.142;2022-12-18T00:47:01;10.10;;;6.30;;
22610;SDS011;11472;45.494;12.142;2022-12-18T00:48:01;10.10;;;6.30;;
22610;SDS011;11472;45.494;12.142;2022-12-18T00:49:01;10.10;;;6.30;;
22610;SDS011;11472;45.494;12.142;2022-12-18T00:50:01;10.10;;;6.30;;
22610;SDS011;11472;45.494;12.142;2022-12-18T00:51:01;10.10;;;6.30;;
22610;SDS011;11472;45.494;12.142;2022-12-18T00:52:01;10.10;;;6.30;;
22610;SDS011;11472;45.494;12.142;2022-12-18T00:53:01;10.10;;;6.30;;
22610;SDS011;11472;45.494;12.142;2022-12-18T00:54:01;10.10;;;6.30;;
22610;SDS011;11472;45.494;12.142;2022-12-18T00:55:06;8.80;;;6.20;;
22610;SDS011;11472;45.494;12.142;2022-12-18T00:56:01;8.80;;;6.20;;
22610;SDS011;11472;45.494;12.142;2022-12-18T00:57:01;8.80;;;6.20;;
22610;SDS011;11472;45.494;12.142;2022-12-18T00:58:01;8.80;;;6.20;;
22610;SDS011;11472;45.494;12.142;2022-12-18T00:59:01;8.80;;;6.20;;
22610;SDS011;11472;45.494;12.142;2022-12-18T01:00:01;8.80;;;6.20;;
22610;SDS011;11472;45.494;12.142;2022-12-18T01:01:01;8.80;;;6.20;;
22610;SDS011;11472;45.494;12.142;2022-12-18T01:02:01;8.80;;;6.20;;
22610;SDS011;11472;45.494;12.142;2022-12-18T01:03:01;8.80;;;6.20;;
22610;SDS011;11472;45.494;12.142;2022-12-18T01:04:02;8.80;;;6.20;;
22610;SDS011;11472;45.494;12.142;2022-12-18T01:05:01;8.80;;;6.20;;
22610;SDS011;11472;45.494;12.142;2022-12-18T01:06:11;8.80;;;6.20;;
22610;SDS011;11472;45.494;12.142;2022-12-18T01:07:01;8.80;;;6.20;;
22610;SDS011;11472;45.494;12.142;2022-12-18T01:08:01;8.80;;;6.20;;
22610;SDS011;11472;45.494;12.142;2022-12-18T01:09:01;8.80;;;6.20;;
22610;SDS011;11472;45.494;12.142;2022-12-18T01:10:01;8.30;;;6.00;;
22610;SDS011;11472;45.494;12.142;2022-12-18T01:11:06;8.30;;;6.00;;
22610;SDS011;11472;45.494;12.142;2022-12-18T01:12:01;8.30;;;6.00;;
22610;SDS011;11472;45.494;12.142;2022-12-18T01:13:01;8.30;;;6.00;;
22610;SDS011;11472;45.494;12.142;2022-12-18T01:14:01;8.30;;;6.00;;
22610;SDS011;11472;45.494;12.142;2022-12-18T01:15:01;8.30;;;6.00;;
22610;SDS011;11472;45.494;12.142;2022-12-18T01:16:03;8.30;;;6.00;;
22610;SDS011;11472;45.494;12.142;2022-12-18T01:17:02;8.30;;;6.00;;
22610;SDS011;11472;45.494;12.142;2022-12-18T01:18:01;8.30;;;6.00;;
22610;SDS011;11472;45.494;12.142;2022-12-18T01:19:01;8.30;;;6.00;;
22610;SDS011;11472;45.494;12.142;2022-12-18T01:20:01;8.30;;;6.00;;
22610;SDS011;11472;45.494;12.142;2022-12-18T01:21:05;8.30;;;6.00;;
22610;SDS011;11472;45.494;12.142;2022-12-18T01:22:01;8.30;;;6.00;;
22610;SDS011;11472;45.494;12.142;2022-12-18T01:23:01;8.30;;;6.00;;
22610;SDS011;11472;45.494;12.142;2022-12-18T01:24:01;8.30;;;6.00;;
22610;SDS011;11472;45.494;12.142;2022-12-18T01:25:01;10.00;;;6.70;;
22610;SDS011;11472;45.494;12.142;2022-12-18T01:26:08;10.00;;;6.70;;
22610;SDS011;11472;45.494;12.142;2022-12-18T01:27:01;10.00;;;6.70;;
22610;SDS011;11472;45.494;12.142;2022-12-18T01:28:02;10.00;;;6.70;;
22610;SDS011;11472;45.494;12.142;2022-12-18T01:29:01;10.00;;;6.70;;
22610;SDS011;11472;45.494;12.142;2022-12-18T01:30:01;10.00;;;6.70;;
22610;SDS011;11472;45.494;12.142;2022-12-18T01:32:01;10.00;;;6.70;;
22610;SDS011;11472;45.494;12.142;2022-12-18T01:33:01;10.00;;;6.70;;
22610;SDS011;11472;45.494;12.142;2022-12-18T01:34:01;10.00;;;6.70;;
22610;SDS011;11472;45.494;12.142;2022-12-18T01:35:01;10.00;;;6.70;;
22610;SDS011;11472;45.494;12.142;2022-12-18T01:36:01;10.00;;;6.70;;
22610;SDS011;11472;45.494;12.142;2022-12-18T01:37:03;10.00;;;6.70;;
22610;SDS011;11472;45.494;12.142;2022-12-18T01:38:01;10.00;;;6.70;;
22610;SDS011;11472;45.494;12.142;2022-12-18T01:39:03;10.00;;;6.70;;
22610;SDS011;11472;45.494;12.142;2022-12-18T01:40:01;8.10;;;6.00;;
22610;SDS011;11472;45.494;12.142;2022-12-18T01:41:01;8.10;;;6.00;;
22610;SDS011;11472;45.494;12.142;2022-12-18T01:42:02;8.10;;;6.00;;
22610;SDS011;11472;45.494;12.142;2022-12-18T01:43:01;8.10;;;6.00;;
22610;SDS011;11472;45.494;12.142;2022-12-18T01:44:01;8.10;;;6.00;;
22610;SDS011;11472;45.494;12.142;2022-12-18T01:46:01;8.10;;;6.00;;
22610;SDS011;11472;45.494;12.142;2022-12-18T01:47:01;8.10;;;6.00;;
22610;SDS011;11472;45.494;12.142;2022-12-18T01:48:03;8.10;;;6.00;;
22610;SDS011;11472;45.494;12.142;2022-12-18T01:49:01;8.10;;;6.00;;
22610;SDS011;11472;45.494;12.142;2022-12-18T01:50:11;8.10;;;6.00;;
22610;SDS011;11472;45.494;12.142;2022-12-18T01:51:01;8.10;;;6.00;;
22610;SDS011;11472;45.494;12.142;2022-12-18T01:52:01;8.10;;;6.00;;
22610;SDS011;11472;45.494;12.142;2022-12-18T01:54:01;8.10;;;6.00;;
22610;SDS011;11472;45.494;12.142;2022-12-18T01:55:02;9.00;;;5.80;;
22610;SDS011;11472;45.494;12.142;2022-12-18T01:56:01;9.00;;;5.80;;
22610;SDS011;11472;45.494;12.142;2022-12-18T01:57:01;9.00;;;5.80;;
22610;SDS011;11472;45.494;12.142;2022-12-18T01:58:01;9.00;;;5.80;;
22610;SDS011;11472;45.494;12.142;2022-12-18T01:59:04;9.00;;;5.80;;
22610;SDS011;11472;45.494;12.142;2022-12-18T02:00:05;9.00;;;5.80;;
22610;SDS011;11472;45.494;12.142;2022-12-18T02:01:01;9.00;;;5.80;;
22610;SDS011;11472;45.494;12.142;2022-12-18T02:02:01;9.00;;;5.80;;
22610;SDS011;11472;45.494;12.142;2022-12-18T02:03:01;9.00;;;5.80;;
22610;SDS011;11472;45.494;12.142;2022-12-18T02:04:26;9.00;;;5.80;;
22610;SDS011;11472;45.494;12.142;2022-12-18T02:05:02;9.00;;;5.80;;
22610;SDS011;11472;45.494;12.142;2022-12-18T02:06:11;9.00;;;5.80;;
22610;SDS011;11472;45.494;12.142;2022-12-18T02:10:03;9.90;;;6.00;;
22610;SDS011;11472;45.494;12.142;2022-12-18T02:11:10;9.90;;;6.00;;
22610;SDS011;11472;45.494;12.142;2022-12-18T02:14:10;9.90;;;6.00;;
22610;SDS011;11472;45.494;12.142;2022-12-18T02:15:13;9.90;;;6.00;;
22610;SDS011;11472;45.494;12.142;2022-12-18T02:16:03;9.90;;;6.00;;
22610;SDS011;11472;45.494;12.142;2022-12-18T02:18:08;9.90;;;6.00;;
22610;SDS011;11472;45.494;12.142;2022-12-18T02:19:06;9.90;;;6.00;;
22610;SDS011;11472;45.494;12.142;2022-12-18T02:23:14;9.90;;;6.00;;
22610;SDS011;11472;45.494;12.142;2022-12-18T02:26:11;8.40;;;5.80;;
22610;SDS011;11472;45.494;12.142;2022-12-18T02:27:03;8.40;;;5.80;;
22610;SDS011;11472;45.494;12.142;2022-12-18T02:28:03;8.40;;;5.80;;
22610;SDS011;11472;45.494;12.142;2022-12-18T02:29:05;8.40;;;5.80;;
22610;SDS011;11472;45.494;12.142;2022-12-18T02:30:02;8.40;;;5.80;;
22610;SDS011;11472;45.494;12.142;2022-12-18T02:31:02;8.40;;;5.80;;
22610;SDS011;11472;45.494;12.142;2022-12-18T02:32:01;8.40;;;5.80;;
22610;SDS011;11472;45.494;12.142;2022-12-18T02:33:01;8.40;;;5.80;;
22610;SDS011;11472;45.494;12.142;2022-12-18T02:34:02;8.40;;;5.80;;
22610;SDS011;11472;45.494;12.142;2022-12-18T02:35:02;8.40;;;5.80;;
22610;SDS011;11472;45.494;12.142;2022-12-18T02:36:01;8.40;;;5.80;;
22610;SDS011;11472;45.494;12.142;2022-12-18T02:37:02;8.40;;;5.80;;
22610;SDS011;11472;45.494;12.142;2022-12-18T02:38:01;8.40;;;5.80;;
22610;SDS011;11472;45.494;12.142;2022-12-18T02:39:01;8.40;;;5.80;;
22610;SDS011;11472;45.494;12.142;2022-12-18T02:40:01;7.90;;;5.50;;
22610;SDS011;11472;45.494;12.142;2022-12-18T02:41:01;7.90;;;5.50;;
22610;SDS011;11472;45.494;12.142;2022-12-18T02:42:02;7.90;;;5.50;;
22610;SDS011;11472;45.494;12.142;2022-12-18T02:43:13;7.90;;;5.50;;
22610;SDS011;11472;45.494;12.142;2022-12-18T02:44:06;7.90;;;5.50;;
22610;SDS011;11472;45.494;12.142;2022-12-18T02:45:01;7.90;;;5.50;;
22610;SDS011;11472;45.494;12.142;2022-12-18T02:46:01;7.90;;;5.50;;
22610;SDS011;11472;45.494;12.142;2022-12-18T02:47:01;7.90;;;5.50;;
22610;SDS011;11472;45.494;12.142;2022-12-18T02:48:01;7.90;;;5.50;;
22610;SDS011;11472;45.494;12.142;2022-12-18T02:49:12;7.90;;;5.50;;
22610;SDS011;11472;45.494;12.142;2022-12-18T02:51:19;7.90;;;5.50;;
22610;SDS011;11472;45.494;12.142;2022-12-18T02:54:08;7.90;;;5.50;;
22610;SDS011;11472;45.494;12.142;2022-12-18T02:56:10;7.80;;;5.70;;
22610;SDS011;11472;45.494;12.142;2022-12-18T02:57:07;7.80;;;5.70;;
22610;SDS011;11472;45.494;12.142;2022-12-18T02:58:03;7.80;;;5.70;;
22610;SDS011;11472;45.494;12.142;2022-12-18T03:01:04;7.80;;;5.70;;
22610;SDS011;11472;45.494;12.142;2022-12-18T03:02:08;7.80;;;5.70;;
22610;SDS011;11472;45.494;12.142;2022-12-18T03:03:09;7.80;;;5.70;;
22610;SDS011;11472;45.494;12.142;2022-12-18T03:04:06;7.80;;;5.70;;
22610;SDS011;11472;45.494;12.142;2022-12-18T03:05:03;7.80;;;5.70;;
22610;SDS011;11472;45.494;12.142;2022-12-18T03:06:06;7.80;;;5.70;;
22610;SDS011;11472;45.494;12.142;2022-12-18T03:07:05;7.80;;;5.70;;
22610;SDS011;11472;45.494;12.142;2022-12-18T03:08:07;7.80;;;5.70;;
22610;SDS011;11472;45.494;12.142;2022-12-18T03:09:10;7.80;;;5.70;;
22610;SDS011;11472;45.494;12.142;2022-12-18T03:10:01;8.10;;;6.10;;
22610;SDS011;11472;45.494;12.142;2022-12-18T03:12:15;8.10;;;6.10;;
22610;SDS011;11472;45.494;12.142;2022-12-18T03:13:08;8.10;;;6.10;;
22610;SDS011;11472;45.494;12.142;2022-12-18T03:14:01;8.10;;;6.10;;
22610;SDS011;11472;45.494;12.142;2022-12-18T03:16:01;8.10;;;6.10;;
22610;SDS011;11472;45.494;12.142;2022-12-18T03:17:02;8.10;;;6.10;;
22610;SDS011;11472;45.494;12.142;2022-12-18T03:18:05;8.10;;;6.10;;
22610;SDS011;11472;45.494;12.142;2022-12-18T03:19:06;8.10;;;6.10;;
22610;SDS011;11472;45.494;12.142;2022-12-18T03:20:09;8.10;;;6.10;;
22610;SDS011;11472;45.494;12.142;2022-12-18T03:21:04;8.10;;;6.10;;
22610;SDS011;11472;45.494;12.142;2022-12-18T03:22:02;8.10;;;6.10;;
22610;SDS011;11472;45.494;12.142;2022-12-18T03:23:11;8.10;;;6.10;;
22610;SDS011;11472;45.494;12.142;2022-12-18T03:24:01;8.10;;;6.10;;
22610;SDS011;11472;45.494;12.142;2022-12-18T03:25:03;9.70;;;6.20;;
22610;SDS011;11472;45.494;12.142;2022-12-18T03:26:08;9.70;;;6.20;;
22610;SDS011;11472;45.494;12.142;2022-12-18T03:27:02;9.70;;;6.20;;
22610;SDS011;11472;45.494;12.142;2022-12-18T03:28:01;9.70;;;6.20;;
22610;SDS011;11472;45.494;12.142;2022-12-18T03:29:04;9.70;;;6.20;;
22610;SDS011;11472;45.494;12.142;2022-12-18T03:30:08;9.70;;;6.20;;
22610;SDS011;11472;45.494;12.142;2022-12-18T03:31:01;9.70;;;6.20;;
22610;SDS011;11472;45.494;12.142;2022-12-18T03:32:04;9.70;;;6.20;;
22610;SDS011;11472;45.494;12.142;2022-12-18T03:33:05;9.70;;;6.20;;
22610;SDS011;11472;45.494;12.142;2022-12-18T03:34:04;9.70;;;6.20;;
22610;SDS011;11472;45.494;12.142;2022-12-18T03:35:02;9.70;;;6.20;;
22610;SDS011;11472;45.494;12.142;2022-12-18T03:36:01;9.70;;;6.20;;
22610;SDS011;11472;45.494;12.142;2022-12-18T03:37:02;9.70;;;6.20;;
22610;SDS011;11472;45.494;12.142;2022-12-18T03:38:01;9.70;;;6.20;;
22610;SDS011;11472;45.494;12.142;2022-12-18T03:39:01;9.70;;;6.20;;
22610;SDS011;11472;45.494;12.142;2022-12-18T03:40:01;8.10;;;6.10;;
22610;SDS011;11472;45.494;12.142;2022-12-18T03:41:07;8.10;;;6.10;;
22610;SDS011;11472;45.494;12.142;2022-12-18T03:42:05;8.10;;;6.10;;
22610;SDS011;11472;45.494;12.142;2022-12-18T03:43:10;8.10;;;6.10;;
22610;SDS011;11472;45.494;12.142;2022-12-18T03:44:12;8.10;;;6.10;;
22610;SDS011;11472;45.494;12.142;2022-12-18T03:45:11;8.10;;;6.10;;
22610;SDS011;11472;45.494;12.142;2022-12-18T03:46:15;8.10;;;6.10;;
22610;SDS011;11472;45.494;12.142;2022-12-18T03:49:08;8.10;;;6.10;;
22610;SDS011;11472;45.494;12.142;2022-12-18T03:50:16;8.10;;;6.10;;
22610;SDS011;11472;45.494;12.142;2022-12-18T03:51:05;8.10;;;6.10;;
22610;SDS011;11472;45.494;12.142;2022-12-18T03:52:04;8.10;;;6.10;;
22610;SDS011;11472;45.494;12.142;2022-12-18T03:54:02;8.10;;;6.10;;
22610;SDS011;11472;45.494;12.142;2022-12-18T03:55:01;9.30;;;6.40;;
22610;SDS011;11472;45.494;12.142;2022-12-18T03:56:01;9.30;;;6.40;;
22610;SDS011;11472;45.494;12.142;2022-12-18T03:57:07;9.30;;;6.40;;
22610;SDS011;11472;45.494;12.142;2022-12-18T03:58:01;9.30;;;6.40;;
22610;SDS011;11472;45.494;12.142;2022-12-18T03:59:01;9.30;;;6.40;;
22610;SDS011;11472;45.494;12.142;2022-12-18T04:00:05;9.30;;;6.40;;
22610;SDS011;11472;45.494;12.142;2022-12-18T04:01:02;9.30;;;6.40;;
22610;SDS011;11472;45.494;12.142;2022-12-18T04:02:01;9.30;;;6.40;;
22610;SDS011;11472;45.494;12.142;2022-12-18T04:03:01;9.30;;;6.40;;
22610;SDS011;11472;45.494;12.142;2022-12-18T04:04:01;9.30;;;6.40;;
22610;SDS011;11472;45.494;12.142;2022-12-18T04:05:02;9.30;;;6.40;;
22610;SDS011;11472;45.494;12.142;2022-12-18T04:06:01;9.30;;;6.40;;
22610;SDS011;11472;45.494;12.142;2022-12-18T04:07:01;9.30;;;6.40;;
22610;SDS011;11472;45.494;12.142;2022-12-18T04:08:01;9.30;;;6.40;;
22610;SDS011;11472;45.494;12.142;2022-12-18T04:09:01;9.30;;;6.40;;
22610;SDS011;11472;45.494;12.142;2022-12-18T04:10:01;8.60;;;6.40;;
22610;SDS011;11472;45.494;12.142;2022-12-18T04:11:01;8.60;;;6.40;;
22610;SDS011;11472;45.494;12.142;2022-12-18T04:12:01;8.60;;;6.40;;
22610;SDS011;11472;45.494;12.142;2022-12-18T04:13:01;8.60;;;6.40;;
22610;SDS011;11472;45.494;12.142;2022-12-18T04:14:04;8.60;;;6.40;;
22610;SDS011;11472;45.494;12.142;2022-12-18T04:15:01;8.60;;;6.40;;
22610;SDS011;11472;45.494;12.142;2022-12-18T04:16:01;8.60;;;6.40;;
22610;SDS011;11472;45.494;12.142;2022-12-18T04:17:02;8.60;;;6.40;;
22610;SDS011;11472;45.494;12.142;2022-12-18T04:18:01;8.60;;;6.40;;
22610;SDS011;11472;45.494;12.142;2022-12-18T04:19:01;8.60;;;6.40;;
22610;SDS011;11472;45.494;12.142;2022-12-18T04:20:01;8.60;;;6.40;;
22610;SDS011;11472;45.494;12.142;2022-12-18T04:21:01;8.60;;;6.40;;
22610;SDS011;11472;45.494;12.142;2022-12-18T04:22:01;8.60;;;6.40;;
22610;SDS011;11472;45.494;12.142;2022-12-18T04:23:01;8.60;;;6.40;;
22610;SDS011;11472;45.494;12.142;2022-12-18T04:24:01;8.60;;;6.40;;
22610;SDS011;11472;45.494;12.142;2022-12-18T04:25:01;8.80;;;6.40;;
22610;SDS011;11472;45.494;12.142;2022-12-18T04:26:01;8.80;;;6.40;;
22610;SDS011;11472;45.494;12.142;2022-12-18T04:27:01;8.80;;;6.40;;
22610;SDS011;11472;45.494;12.142;2022-12-18T04:28:01;8.80;;;6.40;;
22610;SDS011;11472;45.494;12.142;2022-12-18T04:29:01;8.80;;;6.40;;
22610;SDS011;11472;45.494;12.142;2022-12-18T04:30:01;8.80;;;6.40;;
22610;SDS011;11472;45.494;12.142;2022-12-18T04:31:01;8.80;;;6.40;;
22610;SDS011;11472;45.494;12.142;2022-12-18T04:32:01;8.80;;;6.40;;
22610;SDS011;11472;45.494;12.142;2022-12-18T04:33:01;8.80;;;6.40;;
22610;SDS011;11472;45.494;12.142;2022-12-18T04:34:01;8.80;;;6.40;;
22610;SDS011;11472;45.494;12.142;2022-12-18T04:35:01;8.80;;;6.40;;
22610;SDS011;11472;45.494;12.142;2022-12-18T04:36:01;8.80;;;6.40;;
22610;SDS011;11472;45.494;12.142;2022-12-18T04:37:01;8.80;;;6.40;;
22610;SDS011;11472;45.494;12.142;2022-12-18T04:38:01;8.80;;;6.40;;
22610;SDS011;11472;45.494;12.142;2022-12-18T04:39:01;8.80;;;6.40;;
22610;SDS011;11472;45.494;12.142;2022-12-18T04:40:01;10.10;;;6.80;;
22610;SDS011;11472;45.494;12.142;2022-12-18T04:41:01;10.10;;;6.80;;
22610;SDS011;11472;45.494;12.142;2022-12-18T04:42:01;10.10;;;6.80;;
22610;SDS011;11472;45.494;12.142;2022-12-18T04:43:01;10.10;;;6.80;;
22610;SDS011;11472;45.494;12.142;2022-12-18T04:44:01;10.10;;;6.80;;
22610;SDS011;11472;45.494;12.142;2022-12-18T04:45:01;10.10;;;6.80;;
22610;SDS011;11472;45.494;12.142;2022-12-18T04:46:03;10.10;;;6.80;;
22610;SDS011;11472;45.494;12.142;2022-12-18T04:47:01;10.10;;;6.80;;
22610;SDS011;11472;45.494;12.142;2022-12-18T04:48:01;10.10;;;6.80;;
22610;SDS011;11472;45.494;12.142;2022-12-18T04:49:01;10.10;;;6.80;;
22610;SDS011;11472;45.494;12.142;2022-12-18T04:50:01;10.10;;;6.80;;
22610;SDS011;11472;45.494;12.142;2022-12-18T04:51:01;10.10;;;6.80;;
22610;SDS011;11472;45.494;12.142;2022-12-18T04:52:01;10.10;;;6.80;;
22610;SDS011;11472;45.494;12.142;2022-12-18T04:53:01;10.10;;;6.80;;
22610;SDS011;11472;45.494;12.142;2022-12-18T04:54:01;10.10;;;6.80;;
22610;SDS011;11472;45.494;12.142;2022-12-18T04:55:01;9.40;;;6.70;;
22610;SDS011;11472;45.494;12.142;2022-12-18T04:57:01;9.40;;;6.70;;
22610;SDS011;11472;45.494;12.142;2022-12-18T04:58:01;9.40;;;6.70;;
22610;SDS011;11472;45.494;12.142;2022-12-18T04:59:01;9.40;;;6.70;;
22610;SDS011;11472;45.494;12.142;2022-12-18T05:00:01;9.40;;;6.70;;
22610;SDS011;11472;45.494;12.142;2022-12-18T05:01:01;9.40;;;6.70;;
22610;SDS011;11472;45.494;12.142;2022-12-18T05:02:01;9.40;;;6.70;;
22610;SDS011;11472;45.494;12.142;2022-12-18T05:03:02;9.40;;;6.70;;
22610;SDS011;11472;45.494;12.142;2022-12-18T05:04:02;9.40;;;6.70;;
22610;SDS011;11472;45.494;12.142;2022-12-18T05:05:01;9.40;;;6.70;;
22610;SDS011;11472;45.494;12.142;2022-12-18T05:06:01;9.40;;;6.70;;
22610;SDS011;11472;45.494;12.142;2022-12-18T05:07:01;9.40;;;6.70;;
22610;SDS011;11472;45.494;12.142;2022-12-18T05:08:01;9.40;;;6.70;;
22610;SDS011;11472;45.494;12.142;2022-12-18T05:09:01;9.40;;;6.70;;
22610;SDS011;11472;45.494;12.142;2022-12-18T05:10:01;10.90;;;7.20;;
22610;SDS011;11472;45.494;12.142;2022-12-18T05:11:02;10.90;;;7.20;;
22610;SDS011;11472;45.494;12.142;2022-12-18T05:12:01;10.90;;;7.20;;
22610;SDS011;11472;45.494;12.142;2022-12-18T05:13:02;10.90;;;7.20;;
22610;SDS011;11472;45.494;12.142;2022-12-18T05:14:01;10.90;;;7.20;;
22610;SDS011;11472;45.494;12.142;2022-12-18T05:15:03;10.90;;;7.20;;
22610;SDS011;11472;45.494;12.142;2022-12-18T05:16:01;10.90;;;7.20;;
22610;SDS011;11472;45.494;12.142;2022-12-18T05:17:01;10.90;;;7.20;;
22610;SDS011;11472;45.494;12.142;2022-12-18T05:18:01;10.90;;;7.20;;
22610;SDS011;11472;45.494;12.142;2022-12-18T05:19:02;10.90;;;7.20;;
22610;SDS011;11472;45.494;12.142;2022-12-18T05:20:01;10.90;;;7.20;;
22610;SDS011;11472;45.494;12.142;2022-12-18T05:21:01;10.90;;;7.20;;
22610;SDS011;11472;45.494;12.142;2022-12-18T05:22:01;10.90;;;7.20;;
22610;SDS011;11472;45.494;12.142;2022-12-18T05:23:01;10.90;;;7.20;;
22610;SDS011;11472;45.494;12.142;2022-12-18T05:24:01;10.90;;;7.20;;
22610;SDS011;11472;45.494;12.142;2022-12-18T05:25:01;10.90;;;7.20;;
22610;SDS011;11472;45.494;12.142;2022-12-18T05:26:03;10.90;;;7.20;;
22610;SDS011;11472;45.494;12.142;2022-12-18T05:27:01;10.90;;;7.20;;
22610;SDS011;11472;45.494;12.142;2022-12-18T05:28:01;10.90;;;7.20;;
22610;SDS011;11472;45.494;12.142;2022-12-18T05:29:01;10.90;;;7.20;;
22610;SDS011;11472;45.494;12.142;2022-12-18T05:30:01;10.90;;;7.20;;
22610;SDS011;11472;45.494;12.142;2022-12-18T05:31:02;10.90;;;7.20;;
22610;SDS011;11472;45.494;12.142;2022-12-18T05:32:01;10.90;;;7.20;;
22610;SDS011;11472;45.494;12.142;2022-12-18T05:33:01;10.90;;;7.20;;
22610;SDS011;11472;45.494;12.142;2022-12-18T05:34:01;10.90;;;7.20;;
22610;SDS011;11472;45.494;12.142;2022-12-18T05:35:01;10.90;;;7.20;;
22610;SDS011;11472;45.494;12.142;2022-12-18T05:36:03;10.90;;;7.20;;
22610;SDS011;11472;45.494;12.142;2022-12-18T05:37:01;10.90;;;7.20;;
22610;SDS011;11472;45.494;12.142;2022-12-18T05:38:01;10.90;;;7.20;;
22610;SDS011;11472;45.494;12.142;2022-12-18T05:39:01;10.90;;;7.20;;
22610;SDS011;11472;45.494;12.142;2022-12-18T05:40:02;11.20;;;7.50;;
22610;SDS011;11472;45.494;12.142;2022-12-18T05:41:01;11.20;;;7.50;;
22610;SDS011;11472;45.494;12.142;2022-12-18T05:42:01;11.20;;;7.50;;
22610;SDS011;11472;45.494;12.142;2022-12-18T05:43:01;11.20;;;7.50;;
22610;SDS011;11472;45.494;12.142;2022-12-18T05:44:01;11.20;;;7.50;;
22610;SDS011;11472;45.494;12.142;2022-12-18T05:45:01;11.20;;;7.50;;
22610;SDS011;11472;45.494;12.142;2022-12-18T05:46:05;11.20;;;7.50;;
22610;SDS011;11472;45.494;12.142;2022-12-18T05:47:01;11.20;;;7.50;;
22610;SDS011;11472;45.494;12.142;2022-12-18T05:48:01;11.20;;;7.50;;
22610;SDS011;11472;45.494;12.142;2022-12-18T05:49:01;11.20;;;7.50;;
22610;SDS011;11472;45.494;12.142;2022-12-18T05:50:01;11.20;;;7.50;;
22610;SDS011;11472;45.494;12.142;2022-12-18T05:51:06;11.20;;;7.50;;
22610;SDS011;11472;45.494;12.142;2022-12-18T05:52:01;11.20;;;7.50;;
22610;SDS011;11472;45.494;12.142;2022-12-18T05:53:01;11.20;;;7.50;;
22610;SDS011;11472;45.494;12.142;2022-12-18T05:54:01;11.20;;;7.50;;
22610;SDS011;11472;45.494;12.142;2022-12-18T05:55:01;11.70;;;7.30;;
22610;SDS011;11472;45.494;12.142;2022-12-18T05:56:03;11.70;;;7.30;;
22610;SDS011;11472;45.494;12.142;2022-12-18T05:57:01;11.70;;;7.30;;
22610;SDS011;11472;45.494;12.142;2022-12-18T05:58:02;11.70;;;7.30;;
22610;SDS011;11472;45.494;12.142;2022-12-18T05:59:01;11.70;;;7.30;;
22610;SDS011;11472;45.494;12.142;2022-12-18T06:00:01;11.70;;;7.30;;
22610;SDS011;11472;45.494;12.142;2022-12-18T06:01:10;11.70;;;7.30;;
22610;SDS011;11472;45.494;12.142;2022-12-18T06:02:01;11.70;;;7.30;;
22610;SDS011;11472;45.494;12.142;2022-12-18T06:03:01;11.70;;;7.30;;
22610;SDS011;11472;45.494;12.142;2022-12-18T06:04:01;11.70;;;7.30;;
22610;SDS011;11472;45.494;12.142;2022-12-18T06:05:01;11.70;;;7.30;;
22610;SDS011;11472;45.494;12.142;2022-12-18T06:06:01;11.70;;;7.30;;
22610;SDS011;11472;45.494;12.142;2022-12-18T06:07:01;11.70;;;7.30;;
22610;SDS011;11472;45.494;12.142;2022-12-18T06:08:01;11.70;;;7.30;;
22610;SDS011;11472;45.494;12.142;2022-12-18T06:09:01;11.70;;;7.30;;
22610;SDS011;11472;45.494;12.142;2022-12-18T06:10:01;12.20;;;7.50;;
22610;SDS011;11472;45.494;12.142;2022-12-18T06:11:01;12.20;;;7.50;;
22610;SDS011;11472;45.494;12.142;2022-12-18T06:12:01;12.20;;;7.50;;
22610;SDS011;11472;45.494;12.142;2022-12-18T06:13:01;12.20;;;7.50;;
22610;SDS011;11472;45.494;12.142;2022-12-18T06:14:01;12.20;;;7.50;;
22610;SDS011;11472;45.494;12.142;2022-12-18T06:15:01;12.20;;;7.50;;
22610;SDS011;11472;45.494;12.142;2022-12-18T06:16:04;12.20;;;7.50;;
22610;SDS011;11472;45.494;12.142;2022-12-18T06:17:01;12.20;;;7.50;;
22610;SDS011;11472;45.494;12.142;2022-12-18T06:18:01;12.20;;;7.50;;
22610;SDS011;11472;45.494;12.142;2022-12-18T06:19:03;12.20;;;7.50;;
22610;SDS011;11472;45.494;12.142;2022-12-18T06:20:01;12.20;;;7.50;;